createdAt,value
2019-03-16T00:00:04.707Z,99.90
2019-03-16T00:02:33.172Z,99.90
2019-03-16T00:05:01.737Z,99.90
2019-03-16T00:07:33.099Z,99.90
2019-03-16T00:10:00.406Z,99.90
2019-03-16T00:12:28.964Z,99.90
2019-03-16T00:14:57.461Z,99.90
2019-03-16T00:17:25.950Z,99.90
2019-03-16T00:19:54.406Z,99.90
2019-03-16T00:22:22.910Z,99.90
2019-03-16T00:24:51.390Z,99.90
2019-03-16T00:27:19.870Z,99.90
2019-03-16T00:29:48.341Z,99.90
2019-03-16T00:32:17.707Z,99.90
2019-03-16T00:34:46.197Z,99.90
2019-03-16T00:37:14.651Z,99.90
2019-03-16T00:39:43.170Z,99.90
2019-03-16T00:42:11.655Z,99.90
2019-03-16T00:44:40.123Z,99.90
2019-03-16T00:47:08.615Z,99.90
2019-03-16T00:49:37.107Z,99.90
2019-03-16T00:52:05.663Z,99.90
2019-03-16T00:54:34.123Z,99.90
2019-03-16T00:57:02.630Z,99.90
2019-03-16T00:59:31.148Z,99.90
2019-03-16T01:01:59.602Z,99.90
2019-03-16T01:04:28.076Z,99.90
2019-03-16T01:06:56.537Z,99.90
2019-03-16T01:09:25.038Z,99.90
2019-03-16T01:11:53.496Z,99.90
2019-03-16T01:14:22.752Z,99.90
2019-03-16T01:16:51.247Z,99.90
2019-03-16T01:19:19.704Z,99.90
2019-03-16T01:21:48.192Z,99.90
2019-03-16T01:24:16.688Z,99.90
2019-03-16T01:26:45.141Z,99.90
2019-03-16T01:29:13.615Z,99.90
2019-03-16T01:31:42.118Z,99.90
2019-03-16T01:34:10.671Z,99.90
2019-03-16T01:36:39.131Z,99.90
2019-03-16T01:39:08.382Z,99.90
2019-03-16T01:41:36.833Z,99.90
2019-03-16T01:44:05.437Z,99.90
2019-03-16T01:46:33.895Z,99.90
2019-03-16T01:49:02.381Z,99.90
2019-03-16T01:51:30.909Z,99.90
2019-03-16T01:53:59.387Z,99.90
2019-03-16T01:56:27.853Z,99.90
2019-03-16T01:58:56.442Z,99.90
2019-03-16T02:01:24.929Z,99.90
2019-03-16T02:03:53.384Z,99.90
2019-03-16T02:06:21.938Z,99.90
2019-03-16T02:08:50.483Z,99.90
2019-03-16T02:11:18.958Z,99.90
2019-03-16T02:13:47.452Z,99.90
2019-03-16T02:16:15.989Z,99.90
2019-03-16T02:18:44.472Z,99.90
2019-03-16T02:21:12.913Z,99.90
2019-03-16T02:23:41.416Z,99.90
2019-03-16T02:26:09.863Z,99.90
2019-03-16T02:28:38.357Z,99.90
2019-03-16T02:31:06.866Z,99.90
2019-03-16T02:33:35.367Z,99.90
2019-03-16T02:36:03.825Z,99.90
2019-03-16T02:38:33.075Z,99.90
2019-03-16T02:41:01.558Z,99.90
2019-03-16T02:43:30.052Z,99.90
2019-03-16T02:45:58.506Z,99.90
2019-03-16T02:48:27.084Z,99.90
2019-03-16T02:50:55.550Z,99.90
2019-03-16T02:53:24.036Z,99.90
2019-03-16T02:55:52.654Z,99.90
2019-03-16T02:58:21.112Z,99.90
2019-03-16T03:00:49.582Z,99.90
2019-03-16T03:03:29.302Z,99.90
2019-03-16T03:05:48.302Z,99.90
2019-03-16T03:08:16.826Z,99.90
2019-03-16T03:10:45.304Z,99.90
2019-03-16T03:13:14.430Z,99.90
2019-03-16T03:15:43.131Z,99.90
2019-03-16T03:18:11.710Z,99.90
2019-03-16T03:20:40.202Z,99.90
2019-03-16T03:23:08.794Z,99.90
2019-03-16T03:25:37.328Z,99.90
2019-03-16T03:28:05.787Z,99.90
2019-03-16T03:30:34.343Z,99.90
2019-03-16T03:33:02.894Z,99.90
2019-03-16T03:35:31.382Z,99.90
2019-03-16T03:37:59.848Z,99.90
2019-03-16T03:40:28.354Z,99.90
2019-03-16T03:42:56.816Z,99.90
2019-03-16T03:45:25.296Z,99.90
2019-03-16T03:47:53.746Z,99.90
2019-03-16T03:50:22.243Z,99.90
2019-03-16T03:52:50.773Z,99.90
2019-03-16T03:55:19.234Z,99.90
2019-03-16T03:57:47.717Z,99.90
2019-03-16T04:00:17.561Z,99.90
2019-03-16T04:02:46.186Z,99.90
2019-03-16T04:05:14.828Z,99.90
2019-03-16T04:07:43.451Z,99.90
2019-03-16T04:10:12.618Z,99.90
2019-03-16T04:12:41.161Z,99.90
2019-03-16T04:15:11.126Z,99.90
2019-03-16T04:17:39.640Z,99.90
2019-03-16T04:20:11.530Z,99.90
2019-03-16T04:22:40.057Z,99.90
2019-03-16T04:25:08.827Z,99.90
2019-03-16T04:27:37.391Z,99.90
2019-03-16T04:30:07.893Z,99.90
2019-03-16T04:32:36.385Z,99.90
2019-03-16T04:35:06.046Z,99.90
2019-03-16T04:37:34.537Z,99.90
2019-03-16T04:40:03.168Z,99.90
2019-03-16T04:42:31.727Z,99.90
2019-03-16T04:45:00.486Z,99.90
2019-03-16T04:47:29.099Z,99.90
2019-03-16T04:49:57.648Z,99.90
2019-03-16T04:52:26.132Z,99.90
2019-03-16T04:54:54.581Z,99.90
2019-03-16T04:57:23.057Z,99.90
2019-03-16T04:59:51.543Z,99.90
2019-03-16T05:02:20.063Z,99.90
2019-03-16T05:04:48.579Z,99.90
2019-03-16T05:07:17.063Z,99.90
2019-03-16T05:09:45.586Z,99.90
2019-03-16T05:12:14.072Z,99.90
2019-03-16T05:14:42.560Z,99.90
2019-03-16T05:17:11.048Z,99.90
2019-03-16T05:19:39.500Z,99.90
2019-03-16T05:22:07.998Z,99.90
2019-03-16T05:24:36.454Z,99.90
2019-03-16T05:27:04.949Z,99.90
2019-03-16T05:29:33.403Z,99.90
2019-03-16T05:32:01.938Z,99.90
2019-03-16T05:34:30.464Z,99.90
2019-03-16T05:36:58.932Z,99.90
2019-03-16T05:39:27.376Z,99.90
2019-03-16T05:41:55.867Z,99.90
2019-03-16T05:44:24.325Z,99.90
2019-03-16T05:46:52.881Z,99.90
2019-03-16T05:49:21.367Z,99.90
2019-03-16T05:51:49.887Z,99.90
2019-03-16T05:54:18.450Z,99.90
2019-03-16T05:56:47.021Z,99.90
2019-03-16T05:59:15.480Z,99.90
2019-03-16T06:01:44.041Z,99.90
2019-03-16T06:04:12.500Z,99.90
2019-03-16T06:06:40.971Z,99.90
2019-03-16T06:09:09.479Z,99.90
2019-03-16T06:11:37.935Z,99.90
2019-03-16T06:14:06.419Z,99.90
2019-03-16T06:16:34.873Z,99.90
2019-03-16T06:24:40.102Z,99.90
2019-03-16T06:27:20.707Z,99.90
2019-03-16T06:29:51.176Z,99.90
2019-03-16T06:32:19.462Z,99.90
2019-03-16T06:34:48.005Z,99.90
2019-03-16T06:40:45.010Z,99.90
2019-03-16T06:43:13.497Z,99.90
2019-03-16T06:45:42.838Z,99.90
2019-03-16T06:51:52.677Z,99.90
2019-03-16T06:54:21.305Z,99.90
2019-03-16T06:56:50.139Z,99.90
2019-03-16T06:59:18.685Z,99.90
2019-03-16T07:01:47.319Z,99.90
2019-03-16T07:04:15.921Z,99.90
2019-03-16T07:06:44.451Z,99.90
2019-03-16T07:09:13.046Z,99.90
2019-03-16T07:11:41.718Z,99.90
2019-03-16T07:14:10.321Z,99.90
2019-03-16T07:16:39.000Z,99.90
2019-03-16T07:19:07.550Z,99.90
2019-03-16T07:21:36.087Z,99.90
2019-03-16T07:24:10.538Z,99.90
2019-03-16T07:26:58.401Z,99.90
2019-03-16T07:29:27.686Z,99.90
2019-03-16T07:31:56.164Z,99.90
2019-03-16T07:34:25.025Z,99.90
2019-03-16T07:36:53.552Z,99.90
2019-03-16T07:39:22.860Z,99.90
2019-03-16T07:41:51.438Z,99.90
2019-03-16T07:44:19.990Z,99.90
2019-03-16T07:46:48.529Z,99.90
2019-03-16T07:49:17.203Z,99.90
2019-03-16T07:51:45.734Z,99.90
2019-03-16T07:54:14.297Z,99.90
2019-03-16T07:56:42.847Z,99.90
2019-03-16T07:59:11.325Z,99.90
2019-03-16T08:01:39.808Z,99.90
2019-03-16T08:04:08.303Z,99.90
2019-03-16T08:06:37.158Z,99.90
2019-03-16T08:09:06.609Z,99.90
2019-03-16T08:11:35.134Z,99.90
2019-03-16T08:14:03.762Z,99.90
2019-03-16T08:16:32.317Z,99.90
2019-03-16T08:19:00.815Z,99.90
2019-03-16T08:21:29.283Z,99.90
2019-03-16T08:23:57.855Z,99.90
2019-03-16T08:26:26.311Z,99.90
2019-03-16T08:28:54.800Z,99.90
2019-03-16T08:31:23.314Z,99.90
2019-03-16T08:33:51.859Z,99.90
2019-03-16T08:36:20.397Z,99.90
2019-03-16T08:38:48.968Z,99.90
2019-03-16T08:41:17.432Z,99.90
2019-03-16T08:43:45.926Z,99.90
2019-03-16T08:46:14.463Z,99.90
2019-03-16T08:48:45.781Z,99.90
2019-03-16T08:51:14.273Z,99.90
2019-03-16T08:53:42.734Z,99.90
2019-03-16T08:56:11.322Z,99.90
2019-03-16T08:58:39.771Z,99.90
2019-03-16T09:01:08.266Z,99.90
2019-03-16T09:03:43.495Z,99.90
2019-03-16T09:06:07.032Z,99.90
2019-03-16T09:08:35.529Z,99.90
2019-03-16T09:11:04.083Z,99.90
2019-03-16T09:13:32.835Z,99.90
2019-03-16T09:16:01.389Z,99.90
2019-03-16T09:18:30.155Z,99.90
2019-03-16T09:21:04.836Z,99.90
2019-03-16T09:24:23.290Z,99.90
2019-03-16T09:26:52.168Z,99.90
2019-03-16T09:29:20.640Z,99.90
2019-03-16T09:31:49.103Z,99.90
2019-03-16T09:34:17.602Z,99.90
2019-03-16T09:36:46.132Z,99.90
2019-03-16T09:39:14.664Z,99.90
2019-03-16T09:41:43.196Z,99.90
2019-03-16T09:44:11.739Z,99.90
2019-03-16T09:46:40.241Z,99.90
2019-03-16T09:49:08.804Z,99.90
2019-03-16T09:51:37.284Z,99.90
2019-03-16T09:54:05.773Z,99.90
2019-03-16T09:56:34.224Z,99.90
2019-03-16T09:59:02.743Z,99.90
2019-03-16T10:01:31.271Z,99.90
2019-03-16T10:04:05.458Z,99.90
2019-03-16T10:06:33.995Z,99.90
2019-03-16T10:09:02.667Z,99.90
2019-03-16T10:11:31.417Z,99.90
2019-03-16T10:13:59.883Z,99.90
2019-03-16T10:16:28.372Z,99.90
2019-03-16T10:18:56.949Z,99.90
2019-03-16T10:21:25.477Z,99.90
2019-03-16T10:23:54.248Z,99.90
2019-03-16T10:26:22.788Z,99.90
2019-03-16T10:28:51.269Z,99.90
2019-03-16T10:31:19.787Z,99.90
2019-03-16T10:33:48.337Z,99.90
2019-03-16T10:36:17.190Z,99.90
2019-03-16T10:38:45.720Z,99.90
2019-03-16T10:41:14.298Z,99.90
2019-03-16T10:43:42.846Z,99.10
2019-03-16T10:46:11.349Z,98.70
2019-03-16T10:48:39.899Z,99.10
2019-03-16T10:51:08.466Z,99.30
2019-03-16T10:53:36.938Z,99.20
2019-03-16T10:56:22.098Z,99.90
2019-03-16T10:58:56.640Z,99.80
2019-03-16T11:01:21.098Z,99.90
2019-03-16T11:04:06.159Z,99.90
2019-03-16T11:06:34.351Z,99.90
2019-03-16T11:09:04.371Z,99.50
2019-03-16T11:11:33.069Z,98.80
2019-03-16T11:14:01.640Z,98.60
2019-03-16T11:16:31.101Z,98.30
2019-03-16T11:18:59.597Z,97.80
2019-03-16T11:21:28.480Z,97.60
2019-03-16T11:23:56.961Z,95.90
2019-03-16T11:26:25.408Z,95.60
2019-03-16T11:29:13.530Z,96.50
2019-03-16T11:31:42.130Z,95.40
2019-03-16T11:34:10.589Z,94.40
2019-03-16T11:36:39.050Z,94.10
2019-03-16T11:39:08.487Z,92.80
2019-03-16T11:41:37.051Z,91.40
2019-03-16T11:44:05.714Z,91.40
2019-03-16T11:46:34.199Z,90.50
2019-03-16T11:49:02.668Z,90.00
2019-03-16T11:51:31.213Z,88.50
2019-03-16T11:53:59.774Z,88.10
2019-03-16T11:56:28.586Z,86.00
2019-03-16T11:58:57.122Z,87.10
2019-03-16T12:01:25.663Z,86.20
2019-03-16T12:03:54.496Z,85.50
2019-03-16T12:06:23.029Z,85.80
2019-03-16T12:08:51.490Z,84.40
2019-03-16T12:11:53.204Z,81.20
2019-03-16T12:14:21.783Z,81.20
2019-03-16T12:16:51.269Z,82.80
2019-03-16T12:19:19.797Z,81.20
2019-03-16T12:21:48.271Z,79.60
2019-03-16T12:24:16.837Z,79.10
2019-03-16T12:26:45.364Z,79.40
2019-03-16T12:29:13.969Z,79.40
2019-03-16T12:31:42.437Z,77.60
2019-03-16T12:34:10.927Z,77.40
2019-03-16T12:36:42.013Z,78.70
2019-03-16T12:39:10.647Z,78.70
2019-03-16T12:41:39.183Z,78.70
2019-03-16T12:44:07.830Z,76.40
2019-03-16T12:46:36.379Z,77.10
2019-03-16T12:49:04.953Z,77.40
2019-03-16T12:51:33.490Z,78.70
2019-03-16T12:54:02.031Z,77.60
2019-03-16T12:56:49.892Z,79.00
2019-03-16T12:59:46.991Z,79.20
2019-03-16T13:05:20.414Z,79.60
2019-03-16T13:08:01.192Z,80.20
2019-03-16T13:10:42.354Z,81.40
2019-03-16T13:16:41.947Z,82.00
2019-03-16T13:19:22.335Z,83.60
2019-03-16T13:22:02.929Z,83.00
2019-03-16T13:24:44.165Z,84.70
2019-03-16T13:27:24.545Z,84.60
2019-03-16T13:29:58.925Z,85.70
2019-03-16T13:32:42.543Z,86.70
2019-03-16T13:35:12.973Z,86.40
2019-03-16T13:38:00.895Z,87.20
2019-03-16T13:40:29.429Z,87.90
2019-03-16T13:42:57.947Z,87.80
2019-03-16T13:45:45.883Z,87.30
2019-03-16T13:48:33.772Z,88.90
2019-03-16T13:51:21.642Z,89.10
2019-03-16T14:00:37.302Z,89.90
2019-03-16T14:03:19.898Z,89.70
2019-03-16T14:06:00.344Z,90.00
2019-03-16T14:08:40.775Z,90.10
2019-03-16T14:11:22.008Z,90.20
2019-03-16T14:14:03.400Z,90.00
2019-03-16T14:16:43.776Z,90.20
2019-03-16T14:19:25.227Z,90.10
2019-03-16T14:22:05.689Z,90.40
2019-03-16T14:24:46.696Z,90.10
2019-03-16T14:27:27.870Z,90.60
2019-03-16T14:30:09.170Z,90.50
2019-03-16T14:32:50.182Z,90.80
2019-03-16T14:35:31.125Z,90.40
2019-03-16T14:38:11.480Z,90.20
2019-03-16T14:40:52.675Z,90.10
2019-03-16T14:46:52.284Z,90.50
2019-03-16T14:52:52.913Z,90.80
2019-03-16T14:58:16.245Z,90.30
2019-03-16T15:00:55.057Z,90.10
2019-03-16T15:03:35.880Z,90.00
2019-03-16T15:06:16.723Z,89.30
2019-03-16T15:08:57.354Z,88.50
2019-03-16T15:11:38.027Z,86.60
2019-03-16T15:14:21.791Z,87.90
2019-03-16T15:17:02.158Z,87.10
2019-03-16T15:19:42.850Z,86.80
2019-03-16T15:22:23.698Z,84.80
2019-03-16T15:25:05.107Z,83.50
2019-03-16T15:30:28.486Z,82.10
2019-03-16T15:35:51.899Z,83.00
2019-03-16T15:38:32.349Z,83.60
2019-03-16T15:41:13.617Z,84.40
2019-03-16T15:43:48.143Z,85.50
2019-03-16T15:46:36.031Z,86.10
2019-03-16T15:54:49.667Z,86.80
2019-03-16T15:57:37.577Z,86.50
2019-03-16T16:03:18.470Z,87.40
2019-03-16T16:06:06.275Z,87.60
2019-03-16T16:08:54.256Z,87.60
2019-03-16T16:11:22.822Z,88.00
2019-03-16T16:17:05.006Z,89.10
2019-03-16T16:19:53.601Z,88.70
2019-03-16T16:22:41.437Z,89.20
2019-03-16T16:25:29.336Z,89.00
2019-03-16T16:36:33.956Z,90.10
2019-03-16T16:39:15.008Z,90.50
2019-03-16T16:41:55.532Z,90.70
2019-03-16T16:44:35.900Z,90.80
2019-03-16T16:47:17.098Z,90.90
2019-03-16T16:49:57.997Z,91.10
2019-03-16T16:52:38.528Z,91.20
2019-03-16T16:55:19.152Z,91.60
2019-03-16T16:58:00.226Z,92.00
2019-03-16T17:00:28.801Z,92.70
2019-03-16T17:02:57.266Z,93.40
2019-03-16T17:05:45.203Z,93.50
2019-03-16T17:08:33.083Z,93.80
2019-03-16T17:11:20.945Z,94.00
2019-03-16T17:14:28.076Z,94.10
2019-03-16T17:17:15.976Z,94.60
2019-03-16T17:20:04.660Z,94.30
2019-03-16T17:22:52.475Z,94.60
2019-03-16T17:25:40.292Z,94.70
2019-03-16T17:28:20.898Z,94.90
2019-03-16T17:33:44.547Z,95.90
2019-03-16T17:36:24.931Z,96.50
2019-03-16T17:39:06.026Z,96.70
2019-03-16T17:41:47.101Z,97.10
2019-03-16T17:44:28.073Z,97.80
2019-03-16T17:47:09.163Z,98.50
2019-03-16T17:49:50.587Z,99.20
2019-03-16T17:52:31.985Z,99.60
2019-03-16T17:55:12.601Z,99.90
2019-03-16T17:57:53.848Z,99.90
2019-03-16T18:00:35.218Z,99.90
2019-03-16T18:03:16.171Z,99.90
2019-03-16T18:05:57.277Z,99.90
2019-03-16T18:08:38.193Z,99.90
2019-03-16T18:11:19.310Z,99.90
2019-03-16T18:13:59.707Z,99.90
2019-03-16T18:16:40.130Z,99.90
2019-03-16T18:22:04.555Z,99.90
2019-03-16T18:27:47.680Z,99.90
2019-03-16T18:30:35.579Z,99.90
2019-03-16T18:33:23.377Z,99.90
2019-03-16T18:36:11.626Z,99.90
2019-03-16T18:39:00.727Z,99.90
2019-03-16T18:41:48.552Z,99.90
2019-03-16T18:44:36.369Z,99.90
2019-03-16T18:47:24.312Z,99.90
2019-03-16T18:50:12.407Z,99.90
2019-03-16T18:53:00.279Z,99.90
2019-03-16T18:55:48.162Z,99.90
2019-03-16T18:58:37.854Z,99.90
2019-03-16T19:01:25.540Z,99.90
2019-03-16T19:07:08.947Z,99.90
2019-03-16T19:09:49.547Z,99.90
2019-03-16T19:12:30.961Z,99.90
2019-03-16T19:14:59.442Z,99.90
2019-03-16T19:17:58.290Z,99.90
2019-03-16T19:20:36.865Z,99.90
2019-03-16T19:23:24.709Z,99.90
2019-03-16T19:26:12.526Z,99.90
2019-03-16T19:29:00.376Z,99.90
2019-03-16T19:31:48.239Z,99.90
2019-03-16T19:34:16.761Z,99.90
2019-03-16T19:40:14.076Z,99.90
2019-03-16T19:45:46.000Z,99.90
2019-03-16T19:51:28.790Z,99.90
2019-03-16T19:54:10.249Z,99.90
2019-03-16T19:56:51.530Z,99.90
2019-03-16T19:59:20.039Z,99.90
2019-03-16T20:02:07.978Z,99.90
2019-03-16T20:04:55.765Z,99.90
2019-03-16T20:07:43.948Z,99.90
2019-03-16T20:10:31.875Z,99.90
2019-03-16T20:13:20.384Z,99.90
2019-03-16T20:16:08.460Z,99.90
2019-03-16T20:18:57.071Z,99.90
2019-03-16T20:21:45.016Z,99.90
2019-03-16T20:24:13.551Z,99.90
2019-03-16T20:27:01.747Z,99.90
2019-03-16T20:29:49.675Z,99.90
2019-03-16T20:32:18.247Z,99.90
2019-03-16T20:35:27.042Z,99.90
2019-03-16T20:38:14.934Z,99.90
2019-03-16T20:41:35.182Z,99.90
2019-03-16T20:44:12.117Z,99.90
2019-03-16T20:47:00.022Z,99.90
2019-03-16T20:49:48.152Z,99.90
2019-03-16T20:52:29.101Z,99.90
2019-03-16T20:55:10.164Z,99.90
2019-03-16T20:57:51.823Z,99.90
2019-03-16T21:00:34.676Z,99.90
2019-03-16T21:03:16.620Z,99.90
2019-03-16T21:05:57.440Z,99.90
2019-03-16T21:08:38.165Z,99.90
2019-03-16T21:11:06.875Z,99.90
2019-03-16T21:13:54.869Z,99.90
2019-03-16T21:19:49.859Z,99.90
2019-03-16T21:22:18.379Z,99.90
2019-03-16T21:25:26.921Z,99.90
2019-03-16T21:28:15.992Z,99.90
2019-03-16T21:31:04.278Z,99.90
2019-03-16T21:33:52.082Z,99.90
2019-03-16T21:36:41.732Z,99.90
2019-03-16T21:39:29.451Z,99.90
2019-03-16T21:46:04.370Z,99.90
2019-03-16T21:48:32.950Z,99.90
2019-03-16T21:54:08.397Z,99.90
2019-03-16T21:56:56.240Z,99.90
2019-03-16T21:59:44.372Z,99.90
2019-03-16T22:02:25.313Z,99.90
2019-03-16T22:05:06.158Z,99.90
2019-03-16T22:07:47.207Z,99.90
2019-03-16T22:10:47.298Z,99.90
2019-03-16T22:13:28.120Z,99.90
2019-03-16T22:16:11.705Z,99.90
2019-03-16T22:21:34.894Z,99.90
2019-03-16T22:24:15.897Z,99.90
2019-03-16T22:26:56.288Z,99.90
2019-03-16T22:29:37.237Z,99.90
2019-03-16T22:32:05.770Z,99.90
2019-03-16T22:34:53.657Z,99.90
2019-03-16T22:38:00.816Z,99.90
2019-03-16T22:40:29.318Z,99.90
2019-03-16T22:43:17.949Z,99.90
2019-03-16T22:46:05.838Z,99.90
2019-03-16T22:48:34.702Z,99.90
2019-03-16T22:51:24.563Z,99.90
2019-03-16T22:53:53.044Z,99.90
2019-03-16T22:56:40.847Z,99.90
2019-03-16T22:59:28.814Z,99.90
2019-03-16T23:02:16.917Z,99.90
2019-03-16T23:05:25.818Z,99.90
2019-03-16T23:11:06.883Z,99.90
2019-03-16T23:13:54.708Z,99.90
2019-03-16T23:16:42.531Z,99.90
2019-03-16T23:19:30.344Z,99.90
2019-03-16T23:22:18.153Z,99.90
2019-03-16T23:25:27.539Z,99.90
2019-03-16T23:28:16.272Z,99.90
2019-03-16T23:30:58.532Z,99.90
2019-03-16T23:33:39.884Z,99.90
2019-03-16T23:36:21.048Z,99.90
2019-03-16T23:39:02.415Z,99.90
2019-03-16T23:41:30.991Z,99.90
2019-03-16T23:47:15.977Z,99.90
2019-03-16T23:49:57.096Z,99.90
2019-03-16T23:52:38.004Z,99.90
2019-03-16T23:55:18.421Z,99.90
2019-03-16T23:57:59.687Z,99.90
